Time;durP1;ratioP1;P1;durP2;ratioP2;P2;SDS_P1;SDS_P2;PMS_P1;PMS_P2;Temp;Humidity;BMP_temperature;BMP_pressure;BME280_temperature;BME280_humidity;BME280_pressure;Samples;Min_cycle;Max_cycle;Signal;HPM_P1;HPM_P2
2021/12/21 00:00:13;;;;;;;;;;;;;;;19.24;44.57;99973.75;2086020;28;20330;-38
2021/12/21 00:01:13;;;;;;;;;;;;;;;19.23;44.51;99967.44;2083341;28;19920;-38
2021/12/21 00:02:14;;;;;;;;;;;;;;;19.23;44.49;99967.44;2081943;28;19980;-38
2021/12/21 00:03:14;;;;;;;;;;;;;;;19.24;44.51;99958.22;2084932;28;20022;-39
2021/12/21 00:04:14;;;;;;;;;;;;;;;19.23;44.56;99964.72;2083237;28;20346;-38
2021/12/21 00:05:20;;;;;;;;;;;;;;;19.24;44.57;99963.69;2084680;28;19908;-38
2021/12/21 00:06:20;;;;;;;;;;;;;;;19.24;44.58;99954.63;2083304;28;20354;-39
2021/12/21 00:07:21;;;;;;;;;;;;;;;19.24;44.52;99949.16;2083002;28;19913;-38
2021/12/21 00:08:21;;;;;;;;;;;;;;;19.25;44.58;99962.66;2083770;28;20038;-38
2021/12/21 00:09:21;;;;;;;;;;;;;;;19.25;44.57;99954.44;2078614;28;20218;-38
2021/12/21 00:10:23;;;;;;;;;;;;;;;19.27;44.49;99955.16;2077463;28;19964;-37
2021/12/21 00:11:23;;;;;;;;;;;;;;;19.29;44.41;99955.03;2084404;28;19952;-38
2021/12/21 00:12:27;;;;;;;;;;;;;;;19.30;44.54;99950.41;2082359;28;19947;-38
2021/12/21 00:16:19;;;;;;;;;;;;;;;19.33;44.29;99952.81;2079126;28;20463;-38
2021/12/21 00:20:07;;;;;;;;;;;;;;;19.36;44.26;99955.28;2090464;28;19955;-38
2021/12/21 00:21:31;;;;;;;;;;;;;;;19.38;44.21;99958.72;2077531;28;19916;-39
2021/12/21 00:23:56;;;;;;;;;;;;;;;19.39;44.22;99960.41;2080613;28;19963;-42
2021/12/21 00:24:57;;;;;;;;;;;;;;;19.41;44.19;99958.41;2085241;28;19916;-38
2021/12/21 00:25:59;;;;;;;;;;;;;;;19.40;44.28;99960.28;2084171;28;19923;-38
2021/12/21 00:27:00;;;;;;;;;;;;;;;19.41;44.08;99944.72;2079541;28;20827;-38
2021/12/21 00:28:02;;;;;;;;;;;;;;;19.43;44.07;99951.75;2084796;28;20003;-38
2021/12/21 00:29:03;;;;;;;;;;;;;;;19.40;44.14;99943.88;2084025;28;19932;-38
2021/12/21 00:30:03;;;;;;;;;;;;;;;19.42;44.11;99946.44;2081471;28;20314;-39
2021/12/21 00:31:04;;;;;;;;;;;;;;;19.45;44.17;99948.84;2080185;28;19932;-39
2021/12/21 00:32:05;;;;;;;;;;;;;;;19.45;44.09;99943.38;2083496;28;19927;-38
2021/12/21 00:33:05;;;;;;;;;;;;;;;19.46;44.09;99942.38;2082286;28;19916;-38
2021/12/21 00:34:07;;;;;;;;;;;;;;;19.47;44.02;99946.81;2080507;28;20191;-39
2021/12/21 00:35:08;;;;;;;;;;;;;;;19.45;44.03;99938.81;2085249;28;20377;-38
2021/12/21 00:36:09;;;;;;;;;;;;;;;19.47;43.85;99946.81;2082939;28;19990;-38
2021/12/21 00:37:09;;;;;;;;;;;;;;;19.48;44.09;99937.63;2084187;28;19924;-37
2021/12/21 00:38:09;;;;;;;;;;;;;;;19.48;44.06;99934.91;2084775;28;20269;-39
2021/12/21 00:39:14;;;;;;;;;;;;;;;19.48;43.98;99943.94;2083998;28;19960;-38
2021/12/21 00:40:14;;;;;;;;;;;;;;;19.49;43.85;99939.34;2080075;28;20000;-38
2021/12/21 00:41:15;;;;;;;;;;;;;;;19.49;43.99;99933.88;2083698;28;20065;-38
2021/12/21 00:42:15;;;;;;;;;;;;;;;19.50;43.91;99930.13;2074461;28;19924;-38
2021/12/21 00:43:16;;;;;;;;;;;;;;;19.49;43.93;99931.13;2084845;28;19916;-38
2021/12/21 00:44:16;;;;;;;;;;;;;;;19.49;43.86;99928.41;2079761;28;20226;-38
2021/12/21 00:45:16;;;;;;;;;;;;;;;19.49;43.97;99928.41;2079254;28;20024;-38
2021/12/21 00:46:17;;;;;;;;;;;;;;;19.49;43.94;99925.66;2080356;28;19920;-38
2021/12/21 00:47:18;;;;;;;;;;;;;;;19.49;43.94;99922.94;2084220;28;19943;-39
2021/12/21 00:48:18;;;;;;;;;;;;;;;19.49;43.91;99923.78;2075358;28;19916;-39
2021/12/21 00:49:20;;;;;;;;;;;;;;;19.50;43.93;99927.41;2077887;28;19916;-38
2021/12/21 00:50:21;;;;;;;;;;;;;;;19.50;43.96;99930.13;2079636;28;19908;-38
2021/12/21 00:51:23;;;;;;;;;;;;;;;19.49;43.88;99928.41;2080815;28;20012;-38
2021/12/21 00:52:24;;;;;;;;;;;;;;;19.50;43.94;99930.13;2084259;28;20701;-38
2021/12/21 00:53:25;;;;;;;;;;;;;;;19.50;43.91;99930.13;2082620;28;20010;-38
2021/12/21 00:54:26;;;;;;;;;;;;;;;19.48;43.93;99933.00;2083490;28;19912;-39
2021/12/21 00:55:26;;;;;;;;;;;;;;;19.49;43.90;99931.13;2083057;28;19942;-39
2021/12/21 00:56:26;;;;;;;;;;;;;;;19.48;43.91;99927.53;2084107;28;19916;-39
2021/12/21 00:57:27;;;;;;;;;;;;;;;19.49;43.94;99926.50;2082877;28;20509;-38
2021/12/21 00:58:27;;;;;;;;;;;;;;;19.49;43.90;99922.94;2085328;28;19946;-40
2021/12/21 00:59:27;;;;;;;;;;;;;;;19.47;43.94;99920.34;2079390;28;19963;-39
2021/12/21 01:00:28;;;;;;;;;;;;;;;19.48;44.11;99923.97;2083179;28;19915;-39
2021/12/21 01:01:28;;;;;;;;;;;;;;;19.48;43.90;99923.97;2085562;28;19909;-38
2021/12/21 01:02:28;;;;;;;;;;;;;;;19.47;43.91;99920.34;2083119;28;20360;-39
2021/12/21 01:03:29;;;;;;;;;;;;;;;19.48;43.94;99921.22;2083590;28;19928;-38
2021/12/21 01:04:35;;;;;;;;;;;;;;;19.46;44.03;99921.38;2083607;28;19916;-39
2021/12/21 01:05:45;;;;;;;;;;;;;;;19.45;43.92;99924.25;2080109;28;20211;-38
2021/12/21 01:06:59;;;;;;;;;;;;;;;19.47;44.14;99925.81;2082071;28;19920;-39
2021/12/21 01:08:02;;;;;;;;;;;;;;;19.46;43.94;99918.63;2087167;28;20261;-38
2021/12/21 01:11:30;;;;;;;;;;;;;;;19.46;44.02;99918.63;2083329;28;20298;-38
2021/12/21 01:12:45;;;;;;;;;;;;;;;19.46;44.03;99925.97;2083180;28;19917;-38
2021/12/21 01:17:19;;;;;;;;;;;;;;;19.45;44.00;99932.44;2086928;28;20354;-39
2021/12/21 01:18:24;;;;;;;;;;;;;;;19.44;44.01;99930.75;2079735;28;19913;-38
2021/12/21 01:19:34;;;;;;;;;;;;;;;19.44;43.96;99926.13;2085880;28;19916;-39
2021/12/21 01:20:39;;;;;;;;;;;;;;;19.41;44.05;99922.88;2084703;28;20474;-38
2021/12/21 01:24:16;;;;;;;;;;;;;;;19.41;44.07;99915.50;2081510;28;19934;-39
2021/12/21 01:30:44;;;;;;;;;;;;;;;19.39;44.13;99917.53;2081943;28;20022;-38
2021/12/21 01:35:09;;;;;;;;;;;;;;;19.37;44.10;99916.84;2085299;28;20006;-39
2021/12/21 01:36:22;;;;;;;;;;;;;;;19.37;44.27;99914.09;2082128;28;20382;-38
2021/12/21 01:39:11;;;;;;;;;;;;;;;19.35;44.17;99912.53;2083166;28;19909;-39
2021/12/21 01:40:34;;;;;;;;;;;;;;;19.36;44.18;99908.81;2085485;28;20599;-39
2021/12/21 01:41:48;;;;;;;;;;;;;;;19.36;44.23;99911.53;2082665;28;20409;-38
2021/12/21 01:43:08;;;;;;;;;;;;;;;19.34;44.25;99916.31;2085603;28;19915;-39
2021/12/21 01:49:44;;;;;;;;;;;;;;;19.32;44.31;99926.53;2084944;28;19916;-40
2021/12/21 01:50:44;;;;;;;;;;;;;;;19.32;44.28;99937.47;2077887;28;19909;-38
2021/12/21 01:51:45;;;;;;;;;;;;;;;19.31;44.30;99939.34;2083237;28;20287;-37
2021/12/21 01:52:45;;;;;;;;;;;;;;;19.30;44.38;99936.75;2077903;28;20587;-38
2021/12/21 01:53:46;;;;;;;;;;;;;;;19.31;44.33;99935.75;2084819;28;20292;-38
2021/12/21 01:54:47;;;;;;;;;;;;;;;19.31;44.37;99941.22;2084572;28;19940;-38
2021/12/21 01:55:47;;;;;;;;;;;;;;;19.29;44.35;99933.16;2085089;28;19913;-38
2021/12/21 01:56:48;;;;;;;;;;;;;;;19.30;44.36;99936.75;2086211;28;19972;-38
2021/12/21 01:57:48;;;;;;;;;;;;;;;19.28;44.39;99937.78;2083711;28;20432;-38
2021/12/21 01:58:49;;;;;;;;;;;;;;;19.28;44.33;99931.44;2085168;28;19916;-38
2021/12/21 01:59:49;;;;;;;;;;;;;;;19.27;44.36;99936.03;2083880;28;19919;-39
2021/12/21 02:00:50;;;;;;;;;;;;;;;19.26;44.46;99939.78;2080988;28;19924;-39
2021/12/21 02:01:50;;;;;;;;;;;;;;;19.27;44.43;99936.03;2084662;28;19970;-38
2021/12/21 02:02:51;;;;;;;;;;;;;;;19.25;44.41;99932.59;2084268;28;19920;-38
2021/12/21 02:03:51;;;;;;;;;;;;;;;19.25;44.32;99932.59;2084273;28;19916;-38
2021/12/21 02:04:52;;;;;;;;;;;;;;;19.25;44.47;99938.06;2087115;28;19917;-39
2021/12/21 02:05:52;;;;;;;;;;;;;;;19.26;44.46;99933.47;2084472;28;19955;-38
2021/12/21 02:06:53;;;;;;;;;;;;;;;19.24;44.39;99939.09;2086475;28;20019;-37
2021/12/21 02:07:53;;;;;;;;;;;;;;;19.24;44.43;99939.09;2085826;28;20039;-38
2021/12/21 02:08:54;;;;;;;;;;;;;;;19.24;44.40;99938.22;2079155;28;19917;-39
2021/12/21 02:09:54;;;;;;;;;;;;;;;19.23;44.54;99945.59;2086575;28;20291;-40
2021/12/21 02:10:59;;;;;;;;;;;;;;;19.23;44.52;99948.31;2084593;28;19970;-38
2021/12/21 02:11:59;;;;;;;;;;;;;;;19.22;44.53;99935.66;2085605;28;19967;-39
2021/12/21 02:13:00;;;;;;;;;;;;;;;19.22;44.43;99943.84;2082518;28;20257;-38
2021/12/21 02:14:01;;;;;;;;;;;;;;;19.22;44.56;99943.84;2083817;28;19936;-38
2021/12/21 02:15:02;;;;;;;;;;;;;;;19.21;44.45;99946.75;2081538;28;20019;-39
2021/12/21 02:16:03;;;;;;;;;;;;;;;19.20;44.47;99943.13;2084022;28;19958;-39
2021/12/21 02:18:39;;;;;;;;;;;;;;;19.19;44.54;99938.69;2079680;28;19952;-38
2021/12/21 02:19:54;;;;;;;;;;;;;;;19.19;44.53;99933.22;2084170;28;20302;-38
2021/12/21 02:21:00;;;;;;;;;;;;;;;19.19;44.58;99932.38;2083156;28;20022;-38
2021/12/21 02:22:24;;;;;;;;;;;;;;;19.17;44.58;99940.72;2087554;28;19920;-39
2021/12/21 02:23:29;;;;;;;;;;;;;;;19.18;44.58;99937.00;2082977;28;19916;-38
2021/12/21 02:24:38;;;;;;;;;;;;;;;19.18;44.56;99938.84;2083168;28;19917;-38
2021/12/21 02:29:24;;;;;;;;;;;;;;;19.16;44.64;99949.94;2084204;28;20278;-39
2021/12/21 02:30:26;;;;;;;;;;;;;;;19.16;44.75;99954.56;2085027;28;19916;-38
2021/12/21 02:31:26;;;;;;;;;;;;;;;19.16;44.59;99955.41;2085741;28;19967;-38
2021/12/21 02:32:27;;;;;;;;;;;;;;;19.14;44.67;99953.84;2088496;28;19920;-38
2021/12/21 02:33:27;;;;;;;;;;;;;;;19.15;44.63;99959.13;2084183;28;19920;-39
2021/12/21 02:34:28;;;;;;;;;;;;;;;19.13;44.66;99950.22;2079606;28;19967;-39
2021/12/21 02:35:28;;;;;;;;;;;;;;;19.14;44.65;99956.56;2085695;28;19979;-38
2021/12/21 02:36:29;;;;;;;;;;;;;;;19.13;44.71;99952.97;2085505;28;19916;-38
2021/12/21 02:37:29;;;;;;;;;;;;;;;19.14;44.70;99962.88;2083468;28;20295;-39
2021/12/21 02:38:30;;;;;;;;;;;;;;;19.12;44.66;99953.97;2085285;28;19916;-38
2021/12/21 02:39:30;;;;;;;;;;;;;;;19.12;44.74;99953.97;2084557;28;19920;-38
2021/12/21 02:40:31;;;;;;;;;;;;;;;19.12;44.67;99956.72;2086066;28;19916;-38
2021/12/21 02:41:32;;;;;;;;;;;;;;;19.11;44.70;99952.28;2081308;28;19916;-39
2021/12/21 02:42:32;;;;;;;;;;;;;;;19.11;44.71;99952.28;2079528;28;19981;-38
2021/12/21 02:43:35;;;;;;;;;;;;;;;19.11;44.69;99951.38;2085310;28;19917;-38
2021/12/21 02:44:38;;;;;;;;;;;;;;;19.11;44.70;99951.38;2084753;28;19947;-39
2021/12/21 02:45:40;;;;;;;;;;;;;;;19.10;44.74;99950.53;2084183;28;19927;-38
2021/12/21 02:46:41;;;;;;;;;;;;;;;19.08;44.85;99941.63;2085805;28;20137;-39
2021/12/21 02:47:42;;;;;;;;;;;;;;;19.09;44.82;99946.09;2083480;28;19923;-38
2021/12/21 02:48:42;;;;;;;;;;;;;;;19.09;44.77;99946.09;2084234;28;19908;-38
2021/12/21 02:49:43;;;;;;;;;;;;;;;19.09;44.75;99942.53;2080825;28;20379;-39
2021/12/21 02:50:43;;;;;;;;;;;;;;;19.07;44.79;99931.72;2083785;28;19921;-38
2021/12/21 02:51:44;;;;;;;;;;;;;;;19.08;44.79;99941.63;2079858;28;19916;-37
2021/12/21 02:52:46;;;;;;;;;;;;;;;19.05;44.79;99931.03;2086226;28;19916;-38
2021/12/21 02:53:46;;;;;;;;;;;;;;;19.07;44.84;99929.00;2093446;28;19919;-39
2021/12/21 02:54:47;;;;;;;;;;;;;;;19.06;44.75;99927.28;2077656;28;19975;-38
2021/12/21 02:55:47;;;;;;;;;;;;;;;19.06;44.80;99938.22;2085032;28;19980;-38
2021/12/21 02:56:48;;;;;;;;;;;;;;;19.06;44.90;99938.22;2079192;28;19951;-39
2021/12/21 02:57:48;;;;;;;;;;;;;;;19.05;44.82;99933.75;2081895;28;20003;-38
2021/12/21 02:58:49;;;;;;;;;;;;;;;19.04;44.86;99934.78;2083003;28;19934;-38
2021/12/21 02:59:49;;;;;;;;;;;;;;;19.04;44.91;99924.69;2085224;28;20045;-38
2021/12/21 03:00:52;;;;;;;;;;;;;;;19.03;44.72;99927.56;2082229;28;19917;-38
2021/12/21 03:01:53;;;;;;;;;;;;;;;19.04;44.91;99923.84;2086974;28;19923;-38
2021/12/21 03:02:53;;;;;;;;;;;;;;;19.02;44.81;99921.25;2082896;28;20519;-39
2021/12/21 03:03:54;;;;;;;;;;;;;;;19.02;45.03;99920.41;2078157;28;19917;-39
2021/12/21 03:04:54;;;;;;;;;;;;;;;19.03;44.89;99925.72;2080028;28;20008;-38
2021/12/21 03:05:57;;;;;;;;;;;;;;;19.02;44.83;99923.13;2083846;28;19987;-39
2021/12/21 03:08:19;;;;;;;;;;;;;;;19.01;44.84;99925.03;2081668;28;20303;-38
2021/12/21 03:10:24;;;;;;;;;;;;;;;19.00;44.94;99927.88;2083974;28;19986;-38
2021/12/21 03:11:47;;;;;;;;;;;;;;;19.00;44.97;99914.22;2084943;28;21161;-38
2021/12/21 03:14:04;;;;;;;;;;;;;;;18.98;44.96;99922.56;2087416;28;20149;-38
2021/12/21 03:15:04;;;;;;;;;;;;;;;18.99;45.01;99920.72;2082315;28;19942;-38
2021/12/21 03:16:05;;;;;;;;;;;;;;;18.99;44.90;99920.72;2085944;28;20434;-39
2021/12/21 03:17:05;;;;;;;;;;;;;;;18.96;44.88;99915.53;2082258;28;20679;-38
2021/12/21 03:18:06;;;;;;;;;;;;;;;18.97;44.91;99912.66;2082745;28;20349;-39
2021/12/21 03:19:07;;;;;;;;;;;;;;;18.98;44.94;99913.53;2078963;28;19960;-38
2021/12/21 03:20:08;;;;;;;;;;;;;;;18.97;44.95;99922.75;2083939;28;19943;-38
2021/12/21 03:21:08;;;;;;;;;;;;;;;18.97;45.02;99911.81;2083551;28;19927;-38
2021/12/21 03:22:09;;;;;;;;;;;;;;;18.97;44.95;99920.00;2085194;28;20503;-38
2021/12/21 03:23:09;;;;;;;;;;;;;;;18.94;44.94;99914.88;2084066;28;19916;-39
2021/12/21 03:24:09;;;;;;;;;;;;;;;18.94;45.01;99915.72;2084959;28;19916;-39
2021/12/21 03:25:10;;;;;;;;;;;;;;;18.94;45.04;99912.97;2084449;28;20439;-38
2021/12/21 03:26:10;;;;;;;;;;;;;;;18.95;45.05;99919.31;2085926;28;19973;-39
2021/12/21 03:27:11;;;;;;;;;;;;;;;18.94;44.98;99918.44;2084708;28;19938;-38
2021/12/21 03:28:11;;;;;;;;;;;;;;;18.94;45.03;99906.66;2082619;28;19913;-38
2021/12/21 03:29:11;;;;;;;;;;;;;;;18.93;45.08;99915.84;2081934;28;19924;-40
2021/12/21 03:30:13;;;;;;;;;;;;;;;18.93;44.94;99910.41;2084114;28;19917;-38
2021/12/21 03:31:14;;;;;;;;;;;;;;;18.93;45.03;99904.94;2086053;28;19927;-38
2021/12/21 03:32:14;;;;;;;;;;;;;;;18.92;44.91;99914.16;2084037;28;20402;-40
2021/12/21 03:33:14;;;;;;;;;;;;;;;18.91;45.01;99896.88;2085061;28;19908;-39
2021/12/21 03:34:15;;;;;;;;;;;;;;;18.91;45.05;99906.94;2086335;28;19948;-39
2021/12/21 03:35:15;;;;;;;;;;;;;;;18.90;44.94;99908.81;2085080;28;19920;-38
2021/12/21 03:36:18;;;;;;;;;;;;;;;18.91;45.07;99896.03;2082130;28;19920;-39
2021/12/21 03:37:19;;;;;;;;;;;;;;;18.90;45.12;99899.78;2084974;28;19938;-41
2021/12/21 03:38:19;;;;;;;;;;;;;;;18.90;45.16;99900.63;2084463;28;19931;-39
2021/12/21 03:39:20;;;;;;;;;;;;;;;18.90;45.09;99899.78;2079721;28;19905;-38
2021/12/21 03:40:21;;;;;;;;;;;;;;;18.89;45.01;99896.19;2085466;28;20580;-38
2021/12/21 03:41:21;;;;;;;;;;;;;;;18.89;45.06;99903.50;2085256;28;19908;-38
2021/12/21 03:42:23;;;;;;;;;;;;;;;18.89;45.11;99901.66;2082469;28;19908;-38
2021/12/21 03:43:24;;;;;;;;;;;;;;;18.88;45.16;99891.72;2083831;28;19923;-38
2021/12/21 03:44:24;;;;;;;;;;;;;;;18.88;45.06;99901.81;2082846;28;19942;-38
2021/12/21 03:45:25;;;;;;;;;;;;;;;18.84;44.97;99893.94;2084267;28;20295;-38
2021/12/21 03:46:27;;;;;;;;;;;;;;;18.85;45.17;99903.81;2082784;28;20261;-38
2021/12/21 03:47:27;;;;;;;;;;;;;;;18.84;45.21;99899.38;2086867;28;20008;-38
2021/12/21 03:48:28;;;;;;;;;;;;;;;18.85;44.99;99898.34;2080668;28;19920;-39
2021/12/21 03:50:33;;;;;;;;;;;;;;;18.84;45.14;99899.38;2082117;28;21028;-38
2021/12/21 03:51:33;;;;;;;;;;;;;;;18.83;45.22;99902.25;2084986;28;19995;-38
2021/12/21 03:52:34;;;;;;;;;;;;;;;18.83;45.21;99900.38;2082698;28;19920;-38
2021/12/21 03:53:34;;;;;;;;;;;;;;;18.84;45.10;99904.84;2085317;28;20315;-38
2021/12/21 03:54:35;;;;;;;;;;;;;;;18.82;45.05;99898.69;2078969;28;19917;-39
2021/12/21 03:55:36;;;;;;;;;;;;;;;18.83;45.11;99905.84;2085693;28;19920;-38
2021/12/21 03:56:41;;;;;;;;;;;;;;;18.82;45.11;99906.00;2089042;28;20222;-38
2021/12/21 03:57:41;;;;;;;;;;;;;;;18.82;45.11;99903.28;2088708;28;20267;-39
2021/12/21 03:58:42;;;;;;;;;;;;;;;18.81;45.15;99905.16;2087075;28;19982;-38
2021/12/21 03:59:44;;;;;;;;;;;;;;;18.82;45.02;99909.59;2086459;28;20365;-38
2021/12/21 04:00:44;;;;;;;;;;;;;;;18.80;45.13;99906.16;2080004;28;20434;-38
2021/12/21 04:01:46;;;;;;;;;;;;;;;18.80;45.15;99906.16;2083921;28;19977;-39
2021/12/21 04:02:46;;;;;;;;;;;;;;;18.80;45.07;99905.31;2083340;28;20175;-38
2021/12/21 04:03:47;;;;;;;;;;;;;;;18.79;45.19;99893.53;2083558;28;20337;-38
2021/12/21 04:04:48;;;;;;;;;;;;;;;18.78;45.17;99902.72;2082708;28;20494;-39
2021/12/21 04:05:49;;;;;;;;;;;;;;;18.79;45.22;99898.09;2080147;28;20957;-38
2021/12/21 04:06:49;;;;;;;;;;;;;;;18.79;45.14;99899.00;2086625;28;20162;-38
2021/12/21 04:07:49;;;;;;;;;;;;;;;18.77;45.21;99890.09;2080652;28;19988;-38
2021/12/21 04:08:49;;;;;;;;;;;;;;;18.76;45.25;99893.81;2082672;28;20308;-38
2021/12/21 04:09:50;;;;;;;;;;;;;;;18.77;45.24;99890.09;2086120;28;20346;-38
2021/12/21 04:10:51;;;;;;;;;;;;;;;18.76;45.18;99896.53;2080790;28;19909;-39
2021/12/21 04:11:51;;;;;;;;;;;;;;;18.75;45.26;99897.53;2084845;28;19991;-39
2021/12/21 04:12:51;;;;;;;;;;;;;;;18.76;45.18;99898.41;2084207;28;19916;-38
2021/12/21 04:13:52;;;;;;;;;;;;;;;18.75;45.15;99897.53;2081487;28;20432;-39
2021/12/21 04:14:53;;;;;;;;;;;;;;;18.74;45.21;99901.28;2077983;28;20394;-38
2021/12/21 04:15:54;;;;;;;;;;;;;;;18.74;45.26;99895.81;2081238;28;19908;-38
2021/12/21 04:16:54;;;;;;;;;;;;;;;18.74;45.29;99901.28;2084449;28;20386;-38
2021/12/21 04:17:54;;;;;;;;;;;;;;;18.74;45.26;99901.28;2085539;28;19927;-39
2021/12/21 04:18:55;;;;;;;;;;;;;;;18.74;45.04;99894.94;2084657;28;20142;-38
2021/12/21 04:19:55;;;;;;;;;;;;;;;18.73;45.34;99894.09;2085705;28;20263;-38
2021/12/21 04:20:55;;;;;;;;;;;;;;;18.73;45.30;99890.50;2083700;28;20295;-38
2021/12/21 04:21:56;;;;;;;;;;;;;;;18.72;45.37;99897.84;2082908;28;20716;-39
2021/12/21 04:22:56;;;;;;;;;;;;;;;18.73;45.33;99896.81;2078860;28;20166;-38
2021/12/21 04:23:56;;;;;;;;;;;;;;;18.72;45.22;99903.31;2082702;28;19923;-38
2021/12/21 04:24:57;;;;;;;;;;;;;;;18.71;45.35;99901.56;2083776;28;20511;-38
2021/12/21 04:25:57;;;;;;;;;;;;;;;18.72;45.30;99902.44;2083876;28;19917;-38
2021/12/21 04:26:57;;;;;;;;;;;;;;;18.71;45.19;99904.28;2081625;28;19940;-38
2021/12/21 04:27:58;;;;;;;;;;;;;;;18.71;45.22;99897.97;2080725;28;20342;-38
2021/12/21 04:28:58;;;;;;;;;;;;;;;18.70;45.22;99905.31;2079169;28;19919;-39
2021/12/21 04:29:58;;;;;;;;;;;;;;;18.70;45.24;99908.06;2082881;28;19919;-38
2021/12/21 04:30:59;;;;;;;;;;;;;;;18.71;45.22;99912.50;2084156;28;20274;-38
2021/12/21 04:31:59;;;;;;;;;;;;;;;18.70;45.33;99899.88;2083234;28;19920;-38
2021/12/21 04:33:00;;;;;;;;;;;;;;;18.71;45.22;99908.91;2080857;28;19915;-38
2021/12/21 04:34:00;;;;;;;;;;;;;;;18.70;45.11;99909.94;2081641;28;19986;-39
2021/12/21 04:35:00;;;;;;;;;;;;;;;18.69;45.40;99909.06;2083711;28;19943;-39
2021/12/21 04:36:01;;;;;;;;;;;;;;;18.69;45.23;99914.53;2080425;28;19904;-38
2021/12/21 04:37:02;;;;;;;;;;;;;;;18.69;45.40;99909.06;2081385;28;19905;-38
2021/12/21 04:38:19;;;;;;;;;;;;;;;18.69;45.34;99910.94;2083762;28;19920;-38
2021/12/21 04:39:44;;;;;;;;;;;;;;;18.68;45.26;99912.81;2081229;28;19912;-39
2021/12/21 04:40:47;;;;;;;;;;;;;;;18.66;45.27;99898.44;2081326;28;19916;-38
2021/12/21 04:41:47;;;;;;;;;;;;;;;18.66;45.30;99909.34;2080967;28;19917;-38
2021/12/21 04:42:47;;;;;;;;;;;;;;;18.66;45.18;99909.34;2082527;28;20266;-39
2021/12/21 04:43:48;;;;;;;;;;;;;;;18.67;45.35;99910.22;2080063;28;19998;-38
2021/12/21 04:44:48;;;;;;;;;;;;;;;18.67;45.39;99904.75;2081158;28;19917;-38
2021/12/21 04:45:49;;;;;;;;;;;;;;;18.66;45.25;99909.34;2077796;28;19916;-38
2021/12/21 04:46:49;;;;;;;;;;;;;;;18.66;45.40;99903.03;2069923;28;19908;-38
2021/12/21 04:47:50;;;;;;;;;;;;;;;18.66;45.30;99912.09;2089892;28;20984;-38
2021/12/21 04:48:50;;;;;;;;;;;;;;;18.65;45.36;99907.66;2083064;28;19931;-38
2021/12/21 04:49:54;;;;;;;;;;;;;;;18.64;45.38;99905.91;2083114;28;20042;-37
2021/12/21 04:50:54;;;;;;;;;;;;;;;18.63;45.36;99912.41;2077978;28;20338;-39
2021/12/21 04:51:54;;;;;;;;;;;;;;;18.64;45.40;99909.53;2083019;28;19966;-38
2021/12/21 04:52:55;;;;;;;;;;;;;;;18.62;45.43;99903.34;2082980;28;19979;-38
2021/12/21 04:53:55;;;;;;;;;;;;;;;18.64;45.36;99905.91;2083674;28;19913;-38
2021/12/21 04:54:56;;;;;;;;;;;;;;;18.62;45.43;99908.81;2079775;28;19917;-38
2021/12/21 04:55:56;;;;;;;;;;;;;;;18.61;45.42;99907.09;2080955;28;19924;-38
2021/12/21 04:56:56;;;;;;;;;;;;;;;18.61;45.30;99911.69;2083939;28;19932;-38
2021/12/21 04:57:57;;;;;;;;;;;;;;;18.60;45.36;99909.97;2080159;28;19920;-38
2021/12/21 04:58:57;;;;;;;;;;;;;;;18.60;45.54;99905.38;2079825;28;19995;-38
2021/12/21 04:59:57;;;;;;;;;;;;;;;18.61;45.42;99906.22;2084579;28;20273;-38
2021/12/21 05:00:58;;;;;;;;;;;;;;;18.59;45.32;99914.59;2082798;28;20661;-39
2021/12/21 05:01:58;;;;;;;;;;;;;;;18.60;45.53;99916.28;2085083;28;19917;-38
2021/12/21 05:02:58;;;;;;;;;;;;;;;18.60;45.43;99915.44;2083442;28;19969;-38
2021/12/21 05:03:58;;;;;;;;;;;;;;;18.59;45.49;99905.50;2079047;28;20164;-38
2021/12/21 05:04:59;;;;;;;;;;;;;;;18.59;45.39;99905.50;2084726;28;20598;-38
2021/12/21 05:06:00;;;;;;;;;;;;;;;18.59;45.37;99902.78;2084776;28;19916;-38
2021/12/21 05:07:00;;;;;;;;;;;;;;;18.58;45.39;99901.06;2080130;28;19951;-38
2021/12/21 05:09:38;;;;;;;;;;;;;;;18.57;45.37;99885.69;2087178;28;20257;-38
2021/12/21 05:10:49;;;;;;;;;;;;;;;18.57;45.58;99896.59;2085438;28;19923;-38
2021/12/21 05:11:49;;;;;;;;;;;;;;;18.56;45.35;99886.72;2082802;28;19916;-38
2021/12/21 05:12:50;;;;;;;;;;;;;;;18.55;45.37;99890.47;2082977;28;19909;-39
2021/12/21 05:13:50;;;;;;;;;;;;;;;18.56;45.33;99886.72;2078945;28;20212;-38
2021/12/21 05:14:50;;;;;;;;;;;;;;;18.54;45.51;99888.72;2083293;28;19931;-38
2021/12/21 05:15:51;;;;;;;;;;;;;;;18.55;45.43;99895.94;2082674;28;20490;-38
2021/12/21 05:16:51;;;;;;;;;;;;;;;18.55;45.44;99890.47;2080017;28;20354;-38
2021/12/21 05:17:51;;;;;;;;;;;;;;;18.55;45.47;99901.38;2080953;28;19966;-39
2021/12/21 05:18:51;;;;;;;;;;;;;;;18.53;45.46;99898.78;2083926;28;20578;-38
2021/12/21 05:19:52;;;;;;;;;;;;;;;18.54;45.41;99899.66;2081111;28;19966;-38
2021/12/21 05:20:52;;;;;;;;;;;;;;;18.53;45.56;99896.06;2084199;28;19965;-38
2021/12/21 05:21:53;;;;;;;;;;;;;;;18.52;45.41;99899.81;2084201;28;20447;-38
2021/12/21 05:22:53;;;;;;;;;;;;;;;18.52;45.40;99891.63;2082488;28;20361;-38
2021/12/21 05:23:53;;;;;;;;;;;;;;;18.52;45.43;99897.09;2082609;28;19969;-39
2021/12/21 05:24:54;;;;;;;;;;;;;;;18.51;45.42;99889.91;2082862;28;20550;-38
2021/12/21 05:25:54;;;;;;;;;;;;;;;18.52;45.40;99902.56;2084333;28;20301;-39
2021/12/21 05:26:54;;;;;;;;;;;;;;;18.52;45.50;99896.22;2081935;28;19923;-39
2021/12/21 05:27:55;;;;;;;;;;;;;;;18.51;45.51;99889.03;2078578;28;20342;-39
2021/12/21 05:28:55;;;;;;;;;;;;;;;18.50;45.46;99898.25;2082139;28;19912;-38
2021/12/21 05:29:56;;;;;;;;;;;;;;;18.50;45.43;99900.97;2080936;28;19924;-38
2021/12/21 05:30:56;;;;;;;;;;;;;;;18.50;45.50;99892.78;2079976;28;19908;-38
2021/12/21 05:31:59;;;;;;;;;;;;;;;18.49;45.44;99899.25;2082305;28;19963;-38
2021/12/21 05:33:00;;;;;;;;;;;;;;;18.48;45.69;99890.19;2084948;28;19916;-38
2021/12/21 05:34:00;;;;;;;;;;;;;;;18.47;45.68;99893.97;2076479;28;19923;-39
2021/12/21 05:35:00;;;;;;;;;;;;;;;18.48;45.54;99897.53;2081037;28;19935;-39
2021/12/21 05:36:00;;;;;;;;;;;;;;;18.47;45.42;99893.06;2079095;28;19913;-38
2021/12/21 05:37:05;;;;;;;;;;;;;;;18.47;45.49;99893.97;2081579;28;19916;-38
2021/12/21 05:38:09;;;;;;;;;;;;;;;18.47;45.54;99893.06;2080476;28;20342;-38
2021/12/21 05:39:22;;;;;;;;;;;;;;;18.47;45.39;99893.06;2076611;28;20035;-38
2021/12/21 05:40:30;;;;;;;;;;;;;;;18.47;45.50;99895.81;2079369;28;20019;-38
2021/12/21 05:41:47;;;;;;;;;;;;;;;18.46;45.57;99896.81;2083473;28;19920;-38
2021/12/21 05:42:48;;;;;;;;;;;;;;;18.45;45.50;99895.97;2083312;28;20161;-38
2021/12/21 05:43:48;;;;;;;;;;;;;;;18.47;45.54;99904.00;2083087;28;19921;-38
2021/12/21 05:44:49;;;;;;;;;;;;;;;18.47;45.58;99902.16;2083661;28;19916;-38
2021/12/21 05:45:50;;;;;;;;;;;;;;;18.47;45.25;99909.44;2086297;28;20338;-38
2021/12/21 05:46:52;;;;;;;;;;;;;;;18.49;45.38;99907.44;2086817;28;19916;-39
2021/12/21 05:47:52;;;;;;;;;;;;;;;18.50;45.21;99906.44;2086526;28;19917;-38
2021/12/21 05:48:55;;;;;;;;;;;;;;;18.49;45.25;99912.91;2080499;28;20269;-38
2021/12/21 05:49:55;;;;;;;;;;;;;;;18.49;45.20;99910.16;2082044;28;19912;-38
2021/12/21 05:50:55;;;;;;;;;;;;;;;18.49;45.21;99912.91;2080101;28;20003;-38
2021/12/21 05:51:56;;;;;;;;;;;;;;;18.49;45.02;99918.34;2079424;28;19921;-38
2021/12/21 05:52:56;;;;;;;;;;;;;;;18.48;45.05;99912.03;2081293;28;19912;-38
2021/12/21 05:53:56;;;;;;;;;;;;;;;18.47;45.05;99909.44;2079874;28;19923;-38
2021/12/21 05:54:57;;;;;;;;;;;;;;;18.48;45.12;99913.91;2090478;28;20242;-38
2021/12/21 05:55:57;;;;;;;;;;;;;;;18.47;45.07;99910.34;2081027;28;19916;-38
2021/12/21 05:56:57;;;;;;;;;;;;;;;18.48;45.18;99916.66;2084457;28;19966;-38
2021/12/21 05:57:58;;;;;;;;;;;;;;;18.49;45.21;99915.63;2082875;28;20120;-38
2021/12/21 05:59:00;;;;;;;;;;;;;;;18.50;44.94;99917.34;2083850;28;19959;-39
2021/12/21 06:00:01;;;;;;;;;;;;;;;18.52;45.07;99918.03;2086425;28;20282;-38
2021/12/21 06:01:02;;;;;;;;;;;;;;;18.54;44.78;99905.09;2085271;28;19912;-38
2021/12/21 06:02:03;;;;;;;;;;;;;;;18.51;44.67;99910.88;2083574;28;19959;-38
2021/12/21 06:03:03;;;;;;;;;;;;;;;18.54;44.75;99913.28;2077588;28;20368;-38
2021/12/21 06:04:03;;;;;;;;;;;;;;;18.52;44.85;99915.31;2080966;28;19923;-38
2021/12/21 06:05:05;;;;;;;;;;;;;;;18.52;44.91;99913.47;2084676;28;20560;-38